Terminal Aerodrome Forecast
Issued by NWS Pittsburgh, PA

Current Version | Previous Version | Graphics & Text | Print | Product List | Glossary On
Versions: 1 2 3 4 5 6 7 8 9 10 11 12 13 14 15 16 17 18 19 20 21 22 23 24 25 26 27 28 29 30 31 32 33
000
FTUS41 KPBZ 201420 AAA
TAFPIT
TAF AMD
KPIT 201420Z 2014/2118 12006KT 6SM -RA BR OVC025
      TEMPO 2014/2018 4SM -RA OVC018
     FM201800 20006KT P6SM OVC015
     FM210000 20003KT 4SM BR OVC008
     FM211200 20004KT P6SM OVC015=

USA.gov is the U.S. government's official web portal to all federal, state and local government web resources and services.